Time;durP1;ratioP1;P1;durP2;ratioP2;P2;SDS_P1;SDS_P2;PMS_P1;PMS_P2;Temp;Humidity;BMP_temperature;BMP_pressure;BME280_temperature;BME280_humidity;BME280_pressure;Samples;Min_cycle;Max_cycle;Signal;HPM_P1;HPM_P2
2021/10/11 00:00:37;;;;;;;9.40;6.53;;;11.10;87.20;;;;;;4913936;29;20470;-79
2021/10/11 00:03:05;;;;;;;11.40;7.23;;;11.10;88.90;;;;;;4902071;29;20470;-78
2021/10/11 00:05:33;;;;;;;8.77;6.87;;;11.10;89.40;;;;;;4908623;29;20496;-79
2021/10/11 00:08:01;;;;;;;10.23;6.77;;;11.00;89.50;;;;;;4912977;29;20458;-79
2021/10/11 00:10:29;;;;;;;8.97;6.87;;;11.00;89.30;;;;;;4913213;29;20451;-79
2021/10/11 00:12:58;;;;;;;11.57;7.03;;;11.00;89.20;;;;;;4911953;29;20453;-79
2021/10/11 00:15:28;;;;;;;8.10;6.13;;;11.00;90.20;;;;;;4910869;29;20497;-79
2021/10/11 00:17:56;;;;;;;10.43;6.53;;;10.90;88.50;;;;;;4909215;29;20477;-78
2021/10/11 00:20:25;;;;;;;8.70;6.57;;;10.90;89.50;;;;;;4907420;29;20471;-79
2021/10/11 00:22:53;;;;;;;10.00;7.37;;;10.90;90.20;;;;;;4907318;29;20493;-78
2021/10/11 00:25:21;;;;;;;10.63;6.40;;;10.90;89.60;;;;;;4905064;29;21075;-79
2021/10/11 00:27:49;;;;;;;9.93;6.83;;;10.90;89.20;;;;;;4909313;29;20454;-78
2021/10/11 00:30:17;;;;;;;8.90;7.30;;;10.90;90.30;;;;;;4900397;29;20474;-79
2021/10/11 00:32:48;;;;;;;9.83;6.20;;;10.80;89.20;;;;;;4910015;29;20476;-79
2021/10/11 00:35:16;;;;;;;8.17;5.87;;;10.80;87.00;;;;;;4910164;29;20483;-80
2021/10/11 00:37:44;;;;;;;9.60;6.90;;;10.80;83.30;;;;;;4911828;29;20450;-79
2021/10/11 00:40:13;;;;;;;9.00;5.90;;;10.80;81.70;;;;;;4908877;29;20506;-80
2021/10/11 00:42:41;;;;;;;9.23;6.40;;;10.80;82.10;;;;;;4911610;29;20580;-79
2021/10/11 00:45:09;;;;;;;10.43;6.20;;;10.80;83.70;;;;;;4908981;29;20479;-80
2021/10/11 00:47:37;;;;;;;10.00;6.80;;;10.70;82.50;;;;;;4906640;29;20465;-80
2021/10/11 00:50:08;;;;;;;7.20;5.97;;;10.60;83.70;;;;;;4911088;29;20494;-79
2021/10/11 00:52:36;;;;;;;6.37;5.73;;;10.60;82.70;;;;;;4903919;29;20981;-81
2021/10/11 00:55:06;;;;;;;8.70;7.30;;;10.60;86.50;;;;;;4909819;29;20489;-79
2021/10/11 00:57:34;;;;;;;7.73;5.87;;;10.60;85.80;;;;;;4905373;29;21130;-79
2021/10/11 01:00:03;;;;;;;7.30;5.97;;;10.60;87.20;;;;;;4901786;29;20473;-79
2021/10/11 01:02:31;;;;;;;10.20;6.03;;;10.60;85.40;;;;;;4905615;29;20478;-79
2021/10/11 01:04:59;;;;;;;8.20;6.57;;;10.60;90.30;;;;;;4910284;29;20536;-78
2021/10/11 01:07:28;;;;;;;6.93;6.07;;;10.60;91.50;;;;;;4906989;29;20467;-78
2021/10/11 01:09:57;;;;;;;7.73;6.63;;;10.60;89.70;;;;;;4907267;29;20461;-74
2021/10/11 01:12:25;;;;;;;8.93;6.43;;;10.60;85.90;;;;;;4910652;29;20454;-79
2021/10/11 01:14:53;;;;;;;8.23;6.13;;;10.50;87.20;;;;;;4910126;29;20482;-80
2021/10/11 01:17:21;;;;;;;7.90;6.80;;;10.50;87.10;;;;;;4910619;29;21225;-80
2021/10/11 01:19:50;;;;;;;9.00;6.67;;;10.50;87.00;;;;;;4925891;29;20454;-80
2021/10/11 01:22:20;;;;;;;8.00;5.73;;;10.50;82.40;;;;;;4910142;29;20477;-79
2021/10/11 01:24:48;;;;;;;8.67;6.73;;;10.50;83.60;;;;;;4908055;29;20553;-79
2021/10/11 01:27:16;;;;;;;10.13;6.00;;;10.50;82.70;;;;;;4912386;29;20462;-79
2021/10/11 01:29:44;;;;;;;10.00;6.73;;;10.40;82.70;;;;;;4910515;29;20461;-78
2021/10/11 01:32:13;;;;;;;7.67;6.47;;;10.40;80.10;;;;;;4912717;29;20459;-79
2021/10/11 01:34:41;;;;;;;10.13;6.17;;;10.40;78.20;;;;;;4909856;29;20500;-79
2021/10/11 01:37:09;;;;;;;7.57;6.70;;;10.40;82.10;;;;;;4911387;29;20466;-79
2021/10/11 01:39:38;;;;;;;7.93;6.03;;;10.40;82.10;;;;;;4911564;29;20470;-79
2021/10/11 01:42:06;;;;;;;9.63;6.27;;;10.40;81.00;;;;;;4910380;29;20609;-78
2021/10/11 01:44:35;;;;;;;11.33;6.87;;;10.30;79.60;;;;;;4909870;29;20473;-77
2021/10/11 01:47:04;;;;;;;9.87;6.30;;;10.20;74.60;;;;;;4913725;29;20957;-79
2021/10/11 01:49:32;;;;;;;12.57;6.80;;;10.20;77.60;;;;;;4915591;29;20454;-78
2021/10/11 01:52:00;;;;;;;8.23;6.50;;;10.20;76.00;;;;;;4917215;29;20446;-78
2021/10/11 01:54:28;;;;;;;8.67;6.30;;;10.20;76.10;;;;;;4915724;29;20560;-78
2021/10/11 01:56:58;;;;;;;9.80;5.73;;;10.20;78.20;;;;;;4916458;29;20450;-79
2021/10/11 01:59:26;;;;;;;8.40;7.00;;;10.20;80.00;;;;;;4915204;29;20561;-79
2021/10/11 02:01:54;;;;;;;11.90;6.03;;;10.10;78.90;;;;;;4910916;29;20457;-79
2021/10/11 02:04:23;;;;;;;8.10;6.00;;;10.10;78.20;;;;;;4914575;29;20485;-78
2021/10/11 02:06:51;;;;;;;8.87;6.57;;;10.10;77.70;;;;;;4915427;29;20470;-78
2021/10/11 02:09:19;;;;;;;6.33;5.30;;;10.30;73.90;;;;;;4913983;29;20546;-78
2021/10/11 02:11:48;;;;;;;7.37;5.80;;;10.10;80.90;;;;;;4913868;29;20465;-78
2021/10/11 02:14:17;;;;;;;11.40;6.93;;;10.10;74.00;;;;;;4907117;29;20462;-78
2021/10/11 02:16:46;;;;;;;7.80;6.80;;;10.10;73.10;;;;;;4914647;29;20466;-77
2021/10/11 02:19:14;;;;;;;13.83;8.30;;;10.10;76.40;;;;;;4913237;29;20488;-77
2021/10/11 02:21:42;;;;;;;9.93;6.37;;;10.10;79.40;;;;;;4915224;29;20513;-79
2021/10/11 02:24:10;;;;;;;10.80;6.43;;;10.10;82.10;;;;;;4914598;29;20548;-79
2021/10/11 02:26:38;;;;;;;8.50;6.60;;;10.10;87.20;;;;;;4915670;29;20471;-79
2021/10/11 02:29:06;;;;;;;10.40;6.80;;;10.10;83.80;;;;;;4914427;29;20461;-79
2021/10/11 02:31:36;;;;;;;8.40;6.80;;;10.10;78.40;;;;;;4915739;29;20524;-78
2021/10/11 02:34:04;;;;;;;10.00;7.13;;;10.00;76.20;;;;;;4913100;29;20462;-81
2021/10/11 02:36:32;;;;;;;14.20;7.50;;;10.00;73.70;;;;;;4911972;29;20481;-78
2021/10/11 02:39:00;;;;;;;10.33;8.07;;;10.00;74.30;;;;;;4927495;29;20450;-78
2021/10/11 02:41:29;;;;;;;11.90;7.63;;;10.00;74.60;;;;;;4911894;29;20500;-79
2021/10/11 02:43:57;;;;;;;9.87;6.33;;;9.90;76.80;;;;;;4908883;29;21335;-79
2021/10/11 02:46:25;;;;;;;8.53;6.80;;;9.90;77.30;;;;;;4910218;29;20455;-78
2021/10/11 02:48:54;;;;;;;10.20;6.67;;;9.90;76.50;;;;;;4911030;29;20473;-78
2021/10/11 02:51:22;;;;;;;7.93;6.53;;;9.90;74.60;;;;;;4911007;29;20464;-80
2021/10/11 02:53:51;;;;;;;9.13;6.60;;;9.90;75.20;;;;;;4913258;29;20453;-79
2021/10/11 02:56:20;;;;;;;7.60;6.10;;;9.90;75.90;;;;;;4913026;29;20461;-79
2021/10/11 02:58:48;;;;;;;10.13;6.50;;;9.90;72.60;;;;;;4909945;29;20526;-79
2021/10/11 03:01:17;;;;;;;8.80;6.83;;;9.90;71.00;;;;;;4910016;29;20960;-79
2021/10/11 03:03:45;;;;;;;14.73;6.23;;;9.80;71.10;;;;;;4912163;29;21069;-79
2021/10/11 03:06:15;;;;;;;10.97;6.90;;;9.80;75.80;;;;;;4911453;29;21007;-79
2021/10/11 03:08:43;;;;;;;11.03;6.97;;;9.80;76.40;;;;;;4912615;29;20457;-78
2021/10/11 03:11:11;;;;;;;12.00;7.13;;;9.70;75.10;;;;;;4910063;29;20473;-80
2021/10/11 03:13:39;;;;;;;9.10;7.10;;;9.70;75.70;;;;;;4908946;29;20459;-79
2021/10/11 03:16:07;;;;;;;10.23;6.40;;;9.70;75.60;;;;;;4904751;29;21130;-79
2021/10/11 03:18:37;;;;;;;7.73;6.60;;;9.80;76.20;;;;;;4912308;29;20449;-79
2021/10/11 03:21:06;;;;;;;9.17;6.60;;;9.70;75.80;;;;;;4912723;29;20468;-79
2021/10/11 03:23:35;;;;;;;9.50;7.27;;;9.70;75.90;;;;;;4909913;29;20553;-79
2021/10/11 03:26:03;;;;;;;8.93;8.00;;;9.60;72.40;;;;;;4912792;29;20464;-77
2021/10/11 03:28:32;;;;;;;7.23;6.23;;;9.70;73.00;;;;;;4915736;29;20461;-79
2021/10/11 03:31:00;;;;;;;10.40;7.10;;;9.60;74.00;;;;;;4909695;29;20475;-79
2021/10/11 03:33:28;;;;;;;6.13;5.27;;;9.60;74.60;;;;;;4907931;29;20549;-77
2021/10/11 03:35:56;;;;;;;8.63;6.20;;;9.60;76.10;;;;;;4907040;29;20544;-80
2021/10/11 03:38:24;;;;;;;9.47;7.00;;;9.60;77.20;;;;;;4912015;29;20535;-79
2021/10/11 03:40:54;;;;;;;8.23;6.17;;;9.60;75.70;;;;;;4907611;29;20556;-79
2021/10/11 03:43:22;;;;;;;12.10;6.57;;;9.60;75.60;;;;;;4908484;29;20570;-80
2021/10/11 03:45:51;;;;;;;8.07;6.50;;;9.60;80.30;;;;;;4908199;29;20825;-79
2021/10/11 03:48:19;;;;;;;8.80;6.67;;;9.60;86.50;;;;;;4918129;29;20457;-78
2021/10/11 03:50:47;;;;;;;6.43;5.40;;;9.60;84.80;;;;;;4915246;29;20456;-80
2021/10/11 03:53:16;;;;;;;6.17;5.30;;;9.60;79.40;;;;;;4916263;29;20457;-78
2021/10/11 03:55:44;;;;;;;12.63;7.57;;;9.60;75.90;;;;;;4915235;29;20482;-79
2021/10/11 03:58:14;;;;;;;8.73;7.83;;;9.60;78.70;;;;;;4916232;29;20460;-79
2021/10/11 04:00:42;;;;;;;9.80;7.00;;;9.60;83.10;;;;;;4912586;29;21107;-78
2021/10/11 04:03:11;;;;;;;9.00;6.80;;;9.60;87.60;;;;;;4914985;29;20441;-78
2021/10/11 04:05:39;;;;;;;10.10;6.30;;;9.60;82.80;;;;;;4916679;29;20495;-78
2021/10/11 04:08:11;;;;;;;10.30;7.17;;;9.50;81.60;;;;;;4918115;29;20453;-79
2021/10/11 04:10:46;;;;;;;13.63;7.83;;;9.60;85.10;;;;;;4912181;29;20999;-79
2021/10/11 04:13:20;;;;;;;11.60;7.83;;;9.60;87.00;;;;;;4911804;29;20455;-80
2021/10/11 04:15:49;;;;;;;15.03;7.97;;;9.50;88.70;;;;;;4906523;29;20513;-78
2021/10/11 04:18:17;;;;;;;12.03;7.70;;;9.60;83.30;;;;;;4911139;29;20464;-77
2021/10/11 04:20:45;;;;;;;12.20;8.15;;;9.60;96.20;;;;;;4908433;29;20977;-79
2021/10/11 04:23:14;;;;;;;9.00;6.80;;;9.70;96.30;;;;;;4912470;29;20197;-80
2021/10/11 04:25:42;;;;;;;11.73;7.90;;;9.70;97.90;;;;;;4914378;29;20497;-80
2021/10/11 04:28:12;;;;;;;11.50;7.53;;;9.80;97.10;;;;;;4914741;29;20454;-80
2021/10/11 04:30:42;;;;;;;9.23;6.50;;;9.70;92.80;;;;;;4913137;29;20465;-74
2021/10/11 04:33:11;;;;;;;11.53;7.73;;;9.70;90.70;;;;;;4907444;29;20450;-74
2021/10/11 04:35:39;;;;;;;12.20;8.27;;;9.60;89.50;;;;;;4906906;29;20485;-78
2021/10/11 04:38:07;;;;;;;9.97;6.87;;;9.60;88.70;;;;;;4910596;29;20461;-78
2021/10/11 04:40:36;;;;;;;9.20;6.53;;;9.60;90.20;;;;;;4909250;29;20874;-77
2021/10/11 04:43:05;;;;;;;8.40;7.10;;;9.60;89.00;;;;;;4908690;29;20467;-77
2021/10/11 04:45:33;;;;;;;9.40;7.20;;;9.60;86.30;;;;;;4908278;29;20575;-78
2021/10/11 04:48:05;;;;;;;9.67;7.07;;;9.60;80.60;;;;;;4910619;29;20465;-78
2021/10/11 04:50:34;;;;;;;9.13;7.53;;;9.60;81.60;;;;;;4910312;29;20972;-76
2021/10/11 04:53:04;;;;;;;8.60;6.90;;;9.60;84.70;;;;;;4910619;29;20472;-77
2021/10/11 04:55:33;;;;;;;12.97;7.87;;;9.50;82.60;;;;;;4909253;29;20481;-78
2021/10/11 04:58:01;;;;;;;9.97;6.20;;;9.50;94.90;;;;;;4911379;29;20469;-79
2021/10/11 05:00:30;;;;;;;10.57;7.30;;;9.50;80.20;;;;;;4907641;29;20456;-77
2021/10/11 05:02:58;;;;;;;11.13;7.60;;;9.50;80.90;;;;;;4905977;29;20470;-77
2021/10/11 05:05:28;;;;;;;7.73;6.87;;;9.50;83.10;;;;;;4902337;29;20478;-77
2021/10/11 05:07:56;;;;;;;12.50;7.30;;;9.70;83.00;;;;;;4909438;29;20476;-77
2021/10/11 05:10:24;;;;;;;9.10;6.00;;;9.50;83.40;;;;;;4912986;29;21331;-77
2021/10/11 05:12:52;;;;;;;10.07;7.33;;;9.50;82.00;;;;;;4912427;29;20509;-76
2021/10/11 05:15:20;;;;;;;12.60;6.93;;;9.50;82.20;;;;;;4902744;29;20559;-77
2021/10/11 05:17:49;;;;;;;9.27;6.70;;;9.40;81.20;;;;;;4900896;29;20519;-77
2021/10/11 05:20:17;;;;;;;9.10;6.70;;;9.40;80.60;;;;;;4899279;29;20449;-76
2021/10/11 05:22:47;;;;;;;11.93;7.93;;;9.40;80.50;;;;;;4905593;29;20471;-76
2021/10/11 05:25:15;;;;;;;11.88;8.20;;;9.40;82.70;;;;;;4911059;29;20565;-76
2021/10/11 05:27:43;;;;;;;11.90;8.40;;;9.40;82.80;;;;;;4913331;29;20473;-77
2021/10/11 05:30:11;;;;;;;13.00;8.67;;;9.40;83.10;;;;;;4913139;29;20517;-77
2021/10/11 05:32:39;;;;;;;10.57;7.80;;;9.40;82.60;;;;;;4907420;29;20460;-77
2021/10/11 05:35:08;;;;;;;8.85;7.32;;;9.40;86.80;;;;;;4905700;29;20479;-76
2021/10/11 05:37:37;;;;;;;11.70;8.23;;;9.50;88.30;;;;;;4909432;29;20494;-76
2021/10/11 05:40:09;;;;;;;7.90;6.27;;;9.50;89.50;;;;;;4915890;29;20475;-76
2021/10/11 05:42:37;;;;;;;8.97;7.00;;;9.50;88.50;;;;;;4912469;29;20474;-78
2021/10/11 05:45:06;;;;;;;8.33;7.53;;;9.40;90.50;;;;;;4916366;29;20483;-77
2021/10/11 05:47:35;;;;;;;12.17;7.20;;;9.50;88.40;;;;;;4911240;29;20513;-77
2021/10/11 05:50:04;;;;;;;11.23;7.30;;;9.40;91.20;;;;;;4915752;29;20463;-77
2021/10/11 05:52:32;;;;;;;7.60;6.50;;;9.40;92.30;;;;;;4912947;29;20461;-75
2021/10/11 05:55:00;;;;;;;9.27;7.47;;;9.40;92.30;;;;;;4911458;29;20484;-76
2021/10/11 05:57:29;;;;;;;11.07;7.47;;;9.40;91.30;;;;;;4913501;29;20461;-76
2021/10/11 05:59:57;;;;;;;12.43;7.20;;;9.50;91.20;;;;;;4912829;29;21270;-75
2021/10/11 06:02:26;;;;;;;11.60;7.27;;;9.40;90.90;;;;;;4915106;29;20472;-76
2021/10/11 06:04:54;;;;;;;11.83;7.03;;;9.40;91.30;;;;;;4904282;29;20498;-76
2021/10/11 06:07:26;;;;;;;11.30;7.80;;;9.40;90.80;;;;;;4911579;29;20860;-76
2021/10/11 06:09:55;;;;;;;10.43;8.00;;;9.50;91.80;;;;;;4913361;29;20486;-77
2021/10/11 06:12:23;;;;;;;13.87;7.17;;;9.40;92.20;;;;;;4906319;29;20485;-77
2021/10/11 06:14:59;;;;;;;10.77;7.40;;;9.50;92.80;;;;;;4911050;29;20496;-76
2021/10/11 06:17:27;;;;;;;9.33;7.20;;;9.50;93.40;;;;;;4912779;29;21376;-75
2021/10/11 06:19:56;;;;;;;10.63;7.77;;;9.50;99.90;;;;;;4912014;29;20473;-77
2021/10/11 06:22:24;;;;;;;10.10;7.33;;;9.40;94.10;;;;;;4910315;29;21032;-76
2021/10/11 06:24:53;;;;;;;9.53;6.77;;;9.40;94.60;;;;;;4912561;29;20550;-77
2021/10/11 06:27:21;;;;;;;12.87;7.77;;;9.40;96.00;;;;;;4906203;29;20473;-76
2021/10/11 06:29:49;;;;;;;10.87;7.13;;;9.50;96.40;;;;;;4911540;29;20531;-76
2021/10/11 06:32:18;;;;;;;10.77;7.13;;;9.70;96.60;;;;;;4907177;29;20468;-76
2021/10/11 06:34:47;;;;;;;9.43;7.50;;;9.50;96.70;;;;;;4913021;29;20505;-76
2021/10/11 06:37:15;;;;;;;9.03;7.00;;;9.50;96.60;;;;;;4915013;29;20492;-76
2021/10/11 06:39:43;;;;;;;8.60;7.17;;;9.50;96.80;;;;;;4914587;29;21172;-77
2021/10/11 06:42:11;;;;;;;12.47;6.73;;;9.50;96.70;;;;;;4914762;29;20450;-76
2021/10/11 06:44:40;;;;;;;8.50;7.00;;;9.60;98.00;;;;;;4911850;29;20572;-77
2021/10/11 06:47:08;;;;;;;13.23;8.80;;;9.60;98.70;;;;;;4914419;29;20816;-77
2021/10/11 06:49:37;;;;;;;11.07;7.27;;;9.70;99.20;;;;;;4906007;29;20457;-77
2021/10/11 06:52:06;;;;;;;13.10;9.03;;;9.70;99.90;;;;;;4915459;29;20572;-75
2021/10/11 06:54:34;;;;;;;12.57;7.03;;;9.80;99.60;;;;;;4913481;29;20478;-77
2021/10/11 06:57:02;;;;;;;12.83;8.43;;;9.80;99.90;;;;;;4915163;29;20446;-77
2021/10/11 06:59:30;;;;;;;11.57;7.37;;;9.80;99.90;;;;;;4911964;29;20473;-78
2021/10/11 07:01:59;;;;;;;10.70;7.63;;;9.90;99.90;;;;;;4912694;29;20548;-77
2021/10/11 07:04:38;;;;;;;12.10;7.60;;;10.00;99.90;;;;;;4913120;29;20536;-76
2021/10/11 07:07:07;;;;;;;12.40;7.73;;;10.00;99.90;;;;;;4906920;29;20515;-76
2021/10/11 07:09:36;;;;;;;11.73;8.60;;;10.10;99.90;;;;;;4920769;29;20458;-76
2021/10/11 07:12:05;;;;;;;12.27;7.87;;;10.10;99.90;;;;;;4915151;29;20469;-76
2021/10/11 07:14:34;;;;;;;11.73;8.23;;;10.10;99.90;;;;;;4911080;29;20489;-76
2021/10/11 07:17:02;;;;;;;13.70;8.80;;;10.20;99.90;;;;;;4909106;29;20464;-75
2021/10/11 07:19:30;;;;;;;12.00;8.37;;;10.20;99.90;;;;;;4912905;29;20461;-75
2021/10/11 07:22:00;;;;;;;11.87;8.23;;;10.30;99.90;;;;;;4909463;29;20536;-76
2021/10/11 07:24:28;;;;;;;9.73;8.17;;;10.30;99.90;;;;;;4908075;29;20487;-77
2021/10/11 07:26:56;;;;;;;12.27;8.70;;;10.40;99.90;;;;;;4907640;29;20997;-76
2021/10/11 07:29:24;;;;;;;14.27;9.97;;;10.60;99.90;;;;;;4911572;29;20462;-77
2021/10/11 07:31:53;;;;;;;13.47;9.40;;;10.60;99.90;;;;;;4926871;29;20471;-77
2021/10/11 07:34:22;;;;;;;13.67;9.70;;;10.80;99.90;;;;;;4913191;29;20500;-75
2021/10/11 07:36:50;;;;;;;17.60;10.50;;;10.90;99.90;;;;;;4913452;29;20450;-77
2021/10/11 07:39:20;;;;;;;10.60;8.50;;;11.10;99.90;;;;;;4911754;29;20464;-77
2021/10/11 07:41:48;;;;;;;14.80;9.80;;;11.30;99.90;;;;;;4913372;29;20466;-77
2021/10/11 07:44:16;;;;;;;12.80;9.00;;;11.50;99.90;;;;;;4911085;29;20541;-76
2021/10/11 07:46:45;;;;;;;11.83;8.70;;;11.70;99.90;;;;;;4926007;29;20527;-76
2021/10/11 07:49:29;;;;;;;14.60;8.97;;;11.80;99.90;;;;;;4912933;29;20978;-76
2021/10/11 07:51:57;;;;;;;10.73;8.27;;;11.90;99.90;;;;;;4911467;29;20549;-76
2021/10/11 07:54:28;;;;;;;10.10;8.30;;;12.10;99.90;;;;;;4909914;29;20508;-75
2021/10/11 07:56:57;;;;;;;14.33;9.30;;;12.20;99.90;;;;;;4911292;29;20454;-77
2021/10/11 07:59:27;;;;;;;11.77;8.27;;;12.40;99.90;;;;;;4911313;29;20481;-77
2021/10/11 08:01:56;;;;;;;10.30;7.50;;;12.60;99.90;;;;;;4911799;29;20461;-79
2021/10/11 08:04:25;;;;;;;9.80;8.30;;;12.80;99.90;;;;;;4911125;29;20493;-76
2021/10/11 08:06:53;;;;;;;15.30;8.63;;;13.00;99.90;;;;;;4907433;29;20486;-76
2021/10/11 08:09:21;;;;;;;10.93;8.00;;;13.20;99.90;;;;;;4911520;29;20886;-77
2021/10/11 08:11:51;;;;;;;13.83;8.97;;;13.40;99.90;;;;;;4908661;29;20474;-76
2021/10/11 08:14:19;;;;;;;13.80;8.20;;;13.50;99.90;;;;;;4901996;29;20488;-78
2021/10/11 08:16:47;;;;;;;12.93;8.77;;;13.60;99.90;;;;;;4922634;29;20450;-75
2021/10/11 08:19:16;;;;;;;11.83;8.70;;;13.80;99.90;;;;;;4913674;29;20209;-77
2021/10/11 08:21:44;;;;;;;9.00;8.13;;;13.90;99.90;;;;;;4907659;29;20974;-79
2021/10/11 08:24:13;;;;;;;9.30;7.47;;;14.00;99.90;;;;;;4912830;29;20474;-76
2021/10/11 08:26:41;;;;;;;15.80;8.10;;;14.10;99.90;;;;;;4911886;29;20544;-75
2021/10/11 08:29:10;;;;;;;10.83;8.10;;;14.20;99.90;;;;;;4912497;29;20544;-76
2021/10/11 08:31:39;;;;;;;9.87;7.90;;;14.30;99.90;;;;;;4909064;29;20472;-77
2021/10/11 08:34:07;;;;;;;11.33;6.97;;;14.50;99.90;;;;;;4912574;29;20485;-77
2021/10/11 08:36:35;;;;;;;10.07;7.47;;;14.70;99.90;;;;;;4909349;29;20469;-77
2021/10/11 08:39:04;;;;;;;13.37;8.30;;;14.90;99.90;;;;;;4913431;29;20953;-76
2021/10/11 08:41:32;;;;;;;12.47;8.00;;;15.00;99.90;;;;;;4909951;29;20457;-76
2021/10/11 08:44:01;;;;;;;13.57;8.77;;;15.20;99.90;;;;;;4908163;29;20567;-76
2021/10/11 08:46:31;;;;;;;9.43;7.30;;;15.40;99.90;;;;;;4910604;29;20481;-76
2021/10/11 08:49:00;;;;;;;8.50;7.70;;;15.60;99.90;;;;;;4912275;29;20487;-76
2021/10/11 08:51:28;;;;;;;11.67;7.10;;;15.70;99.90;;;;;;4903260;29;20485;-77
2021/10/11 08:53:57;;;;;;;9.97;7.40;;;15.90;99.90;;;;;;4911048;29;20468;-76
2021/10/11 08:56:25;;;;;;;10.87;7.40;;;16.00;99.90;;;;;;4911782;29;20488;-76
2021/10/11 08:58:54;;;;;;;12.43;6.83;;;16.30;99.90;;;;;;4913116;29;20456;-77
2021/10/11 09:01:23;;;;;;;12.30;7.30;;;16.50;99.90;;;;;;4908982;29;20515;-78
2021/10/11 09:03:53;;;;;;;13.90;7.90;;;16.80;99.90;;;;;;4910794;29;20453;-78
2021/10/11 09:06:22;;;;;;;11.63;8.20;;;17.00;99.90;;;;;;4908019;29;20993;-77
2021/10/11 09:08:50;;;;;;;8.20;7.13;;;17.20;99.90;;;;;;4913644;29;20524;-78
2021/10/11 09:11:19;;;;;;;10.73;8.23;;;17.30;99.90;;;;;;4911359;29;20481;-78
2021/10/11 09:13:52;;;;;;;8.20;6.83;;;17.40;99.90;;;;;;4907411;29;20553;-76
2021/10/11 09:16:29;;;;;;;11.07;7.70;;;17.50;99.90;;;;;;4909304;29;20470;-76
2021/10/11 09:19:10;;;;;;;10.50;8.37;;;17.50;99.90;;;;;;4912292;29;20458;-77
2021/10/11 09:21:38;;;;;;;8.90;6.83;;;17.40;99.90;;;;;;4903546;29;20469;-76
2021/10/11 09:24:08;;;;;;;12.47;7.23;;;17.40;99.90;;;;;;4906813;29;20484;-76
2021/10/11 09:26:44;;;;;;;11.70;7.80;;;17.40;99.90;;;;;;4909262;29;20458;-76
2021/10/11 09:29:12;;;;;;;9.70;8.10;;;17.40;99.90;;;;;;4903811;29;20449;-76
2021/10/11 09:31:43;;;;;;;11.60;7.00;;;17.50;99.90;;;;;;4911175;29;20469;-76
2021/10/11 09:34:18;;;;;;;9.70;7.60;;;17.60;99.90;;;;;;4910285;29;20749;-78
2021/10/11 09:36:58;;;;;;;9.67;6.37;;;17.70;99.90;;;;;;4912497;29;20470;-76
2021/10/11 09:39:29;;;;;;;7.80;6.97;;;17.80;99.90;;;;;;4903733;29;20466;-76
2021/10/11 09:41:58;;;;;;;11.57;7.27;;;18.00;99.90;;;;;;4912854;29;20465;-76
2021/10/11 09:44:29;;;;;;;10.05;7.35;;;17.90;99.90;;;;;;4908612;29;20506;-76
2021/10/11 09:47:02;;;;;;;7.20;6.50;;;18.10;99.90;;;;;;4911480;29;20221;-77
2021/10/11 09:49:32;;;;;;;11.40;7.30;;;18.50;99.90;;;;;;4910785;29;20473;-78
2021/10/11 09:52:00;;;;;;;9.77;7.80;;;18.70;99.90;;;;;;4912835;29;20530;-76
2021/10/11 09:54:28;;;;;;;9.50;8.33;;;19.10;99.90;;;;;;4912938;29;20469;-77
2021/10/11 09:57:01;;;;;;;8.93;6.93;;;19.40;99.90;;;;;;4905915;29;21075;-78
2021/10/11 09:59:30;;;;;;;9.43;6.73;;;19.70;99.90;;;;;;4906257;29;20458;-78
2021/10/11 10:01:59;;;;;;;7.90;6.60;;;19.90;99.90;;;;;;4904266;29;20478;-77
2021/10/11 10:04:35;;;;;;;10.00;6.97;;;20.20;99.90;;;;;;4907890;29;20474;-78
2021/10/11 10:07:07;;;;;;;9.50;6.90;;;20.40;99.90;;;;;;4913853;29;20464;-77
2021/10/11 10:09:40;;;;;;;9.13;7.10;;;20.60;99.90;;;;;;4909400;29;20518;-79
2021/10/11 10:12:09;;;;;;;9.60;6.83;;;20.70;99.90;;;;;;4912412;29;20464;-78
2021/10/11 10:14:41;;;;;;;7.30;6.03;;;21.00;99.90;;;;;;4925067;29;20515;-77
2021/10/11 10:17:11;;;;;;;9.10;6.60;;;21.20;99.90;;;;;;4913404;29;20446;-79
2021/10/11 10:19:41;;;;;;;9.33;6.80;;;21.70;99.90;;;;;;4910598;29;20537;-78
2021/10/11 10:22:14;;;;;;;7.33;6.50;;;22.10;99.90;;;;;;4926534;29;20437;-78
2021/10/11 10:24:42;;;;;;;7.93;6.37;;;22.30;99.90;;;;;;4914129;29;20473;-79
2021/10/11 10:27:13;;;;;;;8.17;7.10;;;22.40;99.90;;;;;;4907642;29;20457;-78
2021/10/11 10:29:44;;;;;;;8.37;6.50;;;22.50;99.90;;;;;;4911680;29;20917;-81
2021/10/11 10:32:13;;;;;;;7.70;6.23;;;22.70;99.90;;;;;;4914349;29;21017;-81
2021/10/11 10:34:46;;;;;;;6.30;5.70;;;22.80;99.90;;;;;;4915624;29;20568;-80
2021/10/11 10:37:14;;;;;;;10.37;7.00;;;22.90;99.90;;;;;;4911415;29;20462;-80
2021/10/11 10:39:45;;;;;;;8.57;6.40;;;23.00;99.90;;;;;;4916173;29;20989;-80
2021/10/11 10:42:24;;;;;;;6.23;5.67;;;23.10;99.90;;;;;;4910608;29;20458;-81
2021/10/11 10:44:52;;;;;;;7.17;6.47;;;23.20;99.90;;;;;;4915593;29;20466;-81
2021/10/11 10:47:31;;;;;;;8.40;6.30;;;23.30;99.90;;;;;;4914487;29;20451;-81
2021/10/11 10:50:01;;;;;;;7.90;6.90;;;23.60;99.90;;;;;;4912852;29;20513;-82
2021/10/11 10:52:29;;;;;;;7.90;6.60;;;23.60;99.90;;;;;;4905991;29;20442;-81
2021/10/11 10:55:00;;;;;;;11.87;7.47;;;23.80;99.90;;;;;;4914977;29;20478;-81
2021/10/11 10:57:31;;;;;;;7.90;6.50;;;24.00;99.90;;;;;;4911432;29;20458;-79
2021/10/11 11:00:01;;;;;;;10.37;7.43;;;24.40;99.90;;;;;;4912501;29;20205;-79
2021/10/11 11:02:30;;;;;;;9.37;7.40;;;24.50;99.90;;;;;;4908745;29;20461;-79
2021/10/11 11:05:02;;;;;;;8.30;6.30;;;24.60;99.90;;;;;;4913610;29;20465;-80
2021/10/11 11:07:33;;;;;;;9.20;6.90;;;24.40;99.90;;;;;;4915674;29;20560;-79
2021/10/11 11:10:02;;;;;;;10.53;6.13;;;24.10;99.90;;;;;;4913981;29;20970;-79
2021/10/11 11:12:32;;;;;;;10.07;6.80;;;23.70;99.90;;;;;;4912701;29;20476;-79
2021/10/11 11:15:01;;;;;;;8.50;6.40;;;23.40;99.90;;;;;;4903244;29;20726;-78
2021/10/11 11:17:31;;;;;;;7.47;6.57;;;23.10;99.90;;;;;;4906383;29;20472;-78
2021/10/11 11:20:02;;;;;;;10.00;6.73;;;22.80;99.90;;;;;;4909515;29;20837;-78
2021/10/11 11:22:31;;;;;;;10.93;7.80;;;22.50;99.90;;;;;;4903821;29;20454;-78
2021/10/11 11:25:03;;;;;;;8.63;6.30;;;22.30;99.90;;;;;;4904115;29;20899;-78
2021/10/11 11:27:33;;;;;;;7.03;6.33;;;22.10;99.90;;;;;;4912401;29;20462;-78
2021/10/11 11:30:05;;;;;;;7.43;6.00;;;22.00;99.90;;;;;;4909300;29;20472;-78
2021/10/11 11:32:37;;;;;;;8.80;6.80;;;21.90;99.90;;;;;;4909579;29;20465;-78
2021/10/11 11:35:15;;;;;;;13.27;7.70;;;21.90;99.90;;;;;;4912177;29;20916;-79
2021/10/11 11:37:46;;;;;;;7.13;5.80;;;21.80;99.90;;;;;;4913073;29;20461;-78
2021/10/11 11:40:17;;;;;;;10.27;6.60;;;21.70;99.90;;;;;;4903422;29;20513;-79
2021/10/11 11:42:46;;;;;;;10.30;5.57;;;21.60;99.90;;;;;;4904535;29;20540;-77
2021/10/11 11:45:16;;;;;;;8.40;7.37;;;21.50;99.90;;;;;;4900959;29;20480;-79
2021/10/11 11:47:44;;;;;;;7.17;5.77;;;21.40;99.90;;;;;;4913759;29;20453;-78
2021/10/11 11:50:22;;;;;;;8.57;5.70;;;21.40;99.90;;;;;;4911516;29;20520;-79
2021/10/11 11:53:01;;;;;;;9.33;6.90;;;21.40;99.90;;;;;;4908808;29;20464;-78
2021/10/11 11:55:30;;;;;;;8.57;7.67;;;21.40;99.90;;;;;;4912146;29;20477;-79
2021/10/11 11:57:59;;;;;;;9.87;7.10;;;21.40;99.90;;;;;;4914223;29;20463;-79
2021/10/11 12:00:30;;;;;;;9.23;7.03;;;21.40;99.90;;;;;;4911253;29;20978;-77
2021/10/11 12:03:00;;;;;;;10.33;6.90;;;21.40;99.90;;;;;;4914137;29;20961;-79
2021/10/11 12:05:30;;;;;;;9.63;8.63;;;21.40;99.90;;;;;;4907972;29;20934;-79
2021/10/11 12:07:59;;;;;;;9.83;7.47;;;21.40;99.90;;;;;;4912929;29;21003;-79
2021/10/11 12:10:27;;;;;;;6.97;6.07;;;21.40;99.90;;;;;;4911867;29;20475;-80
2021/10/11 12:13:00;;;;;;;8.80;7.37;;;21.30;99.90;;;;;;4909593;29;20473;-78
2021/10/11 12:15:30;;;;;;;9.10;6.70;;;21.30;99.90;;;;;;4918202;29;20575;-79
2021/10/11 12:18:10;;;;;;;10.40;6.53;;;21.30;99.90;;;;;;4903942;29;20468;-75
2021/10/11 12:20:43;;;;;;;9.73;5.97;;;21.30;99.90;;;;;;4910877;29;20495;-74
2021/10/11 12:23:12;;;;;;;11.97;7.50;;;21.40;99.90;;;;;;4913468;29;20470;-76
2021/10/11 12:25:41;;;;;;;10.07;6.97;;;21.30;99.90;;;;;;4911720;29;20480;-77
2021/10/11 12:28:12;;;;;;;10.70;6.50;;;21.30;99.90;;;;;;4902555;29;20463;-77
2021/10/11 12:30:41;;;;;;;9.33;6.67;;;21.20;99.90;;;;;;4921661;29;20489;-78
2021/10/11 12:33:14;;;;;;;8.40;6.00;;;21.10;99.90;;;;;;4912578;29;21016;-77
2021/10/11 12:35:45;;;;;;;7.90;6.60;;;21.00;99.90;;;;;;4908488;29;20488;-78
2021/10/11 12:38:16;;;;;;;9.00;5.83;;;21.00;99.90;;;;;;4914469;29;20479;-79
2021/10/11 12:40:45;;;;;;;9.40;6.40;;;21.00;99.90;;;;;;4908610;29;20536;-79
2021/10/11 12:43:15;;;;;;;12.20;7.97;;;21.00;99.90;;;;;;4914232;29;20994;-79
2021/10/11 12:45:45;;;;;;;8.07;6.10;;;20.90;99.90;;;;;;4911528;29;20492;-78
2021/10/11 12:48:14;;;;;;;6.70;5.60;;;20.90;99.90;;;;;;4913874;29;20465;-78
2021/10/11 12:50:54;;;;;;;7.87;6.10;;;21.00;99.90;;;;;;4911645;29;21130;-78
2021/10/11 12:53:29;;;;;;;7.97;6.70;;;21.10;99.90;;;;;;4913020;29;20469;-77
2021/10/11 12:55:58;;;;;;;8.30;6.23;;;21.00;99.90;;;;;;4913551;29;20486;-78